sensor_id;sensor_type;location;lat;lon;timestamp;pressure;altitude;pressure_sealevel;temperature;humidity
74834;BME280;63361;52.384;20.930;2023-01-29T00:02:19;101652.94;;;-1.21;82.75
74834;BME280;63361;52.384;20.930;2023-01-29T00:04:45;101647.84;;;-1.31;82.62
74834;BME280;63361;52.384;20.930;2023-01-29T00:07:10;101643.84;;;-1.19;81.94
74834;BME280;63361;52.384;20.930;2023-01-29T00:09:35;101637.25;;;-1.31;82.87
74834;BME280;63361;52.384;20.930;2023-01-29T00:12:01;101620.94;;;-1.43;81.80
74834;BME280;63361;52.384;20.930;2023-01-29T00:14:26;101636.66;;;-1.41;81.93
74834;BME280;63361;52.384;20.930;2023-01-29T00:16:52;101615.34;;;-1.56;81.91
74834;BME280;63361;52.384;20.930;2023-01-29T00:19:18;101621.31;;;-1.54;81.99
74834;BME280;63361;52.384;20.930;2023-01-29T00:21:44;101623.09;;;-1.46;83.09
74834;BME280;63361;52.384;20.930;2023-01-29T00:24:10;101598.81;;;-1.66;83.89
74834;BME280;63361;52.384;20.930;2023-01-29T00:26:35;101623.25;;;-1.39;81.78
74834;BME280;63361;52.384;20.930;2023-01-29T00:29:03;101591.22;;;-1.61;82.82
74834;BME280;63361;52.384;20.930;2023-01-29T00:31:29;101619.94;;;-1.50;83.33
74834;BME280;63361;52.384;20.930;2023-01-29T00:33:54;101598.97;;;-1.59;83.62
74834;BME280;63361;52.384;20.930;2023-01-29T00:36:20;101598.00;;;-1.58;84.24
74834;BME280;63361;52.384;20.930;2023-01-29T00:38:46;101594.47;;;-1.43;84.00
74834;BME280;63361;52.384;20.930;2023-01-29T00:41:19;101601.31;;;-1.64;83.95
74834;BME280;63361;52.384;20.930;2023-01-29T00:44:04;101586.09;;;-1.62;83.75
74834;BME280;63361;52.384;20.930;2023-01-29T00:46:48;101563.47;;;-1.73;84.79
74834;BME280;63361;52.384;20.930;2023-01-29T00:49:14;101574.06;;;-1.73;84.24
74834;BME280;63361;52.384;20.930;2023-01-29T00:51:39;101611.22;;;-1.58;84.58
74834;BME280;63361;52.384;20.930;2023-01-29T00:54:04;101593.69;;;-1.67;84.14
74834;BME280;63361;52.384;20.930;2023-01-29T00:56:34;101602.13;;;-1.56;84.19
74834;BME280;63361;52.384;20.930;2023-01-29T00:59:00;101583.44;;;-1.62;85.17
74834;BME280;63361;52.384;20.930;2023-01-29T01:01:25;101563.13;;;-1.70;83.53
74834;BME280;63361;52.384;20.930;2023-01-29T01:04:10;101575.50;;;-1.62;83.59
74834;BME280;63361;52.384;20.930;2023-01-29T01:06:37;101569.75;;;-1.74;84.56
74834;BME280;63361;52.384;20.930;2023-01-29T01:09:04;101564.94;;;-1.70;84.20
74834;BME280;63361;52.384;20.930;2023-01-29T01:11:48;101570.06;;;-1.69;84.87
74834;BME280;63361;52.384;20.930;2023-01-29T01:14:13;101541.97;;;-1.78;84.98
74834;BME280;63361;52.384;20.930;2023-01-29T01:16:38;101551.88;;;-1.72;84.62
74834;BME280;63361;52.384;20.930;2023-01-29T01:19:04;101569.72;;;-1.66;84.69
74834;BME280;63361;52.384;20.930;2023-01-29T01:21:29;101546.28;;;-1.77;85.28
74834;BME280;63361;52.384;20.930;2023-01-29T01:23:54;101562.97;;;-1.68;85.37
74834;BME280;63361;52.384;20.930;2023-01-29T01:26:20;101553.72;;;-1.72;85.60
74834;BME280;63361;52.384;20.930;2023-01-29T01:28:45;101549.97;;;-1.86;85.58
74834;BME280;63361;52.384;20.930;2023-01-29T01:31:12;101559.50;;;-1.77;84.83
74834;BME280;63361;52.384;20.930;2023-01-29T01:33:38;101558.34;;;-1.83;85.07
74834;BME280;63361;52.384;20.930;2023-01-29T01:36:04;101565.00;;;-1.87;86.56
74834;BME280;63361;52.384;20.930;2023-01-29T01:38:33;101554.91;;;-1.91;86.46
74834;BME280;63361;52.384;20.930;2023-01-29T01:40:58;101544.78;;;-1.80;86.13
74834;BME280;63361;52.384;20.930;2023-01-29T01:43:24;101541.69;;;-1.91;85.40
74834;BME280;63361;52.384;20.930;2023-01-29T01:45:49;101550.91;;;-1.79;85.82
74834;BME280;63361;52.384;20.930;2023-01-29T01:50:49;101560.16;;;-1.83;85.72
74834;BME280;63361;52.384;20.930;2023-01-29T01:53:23;101552.44;;;-1.93;86.43
74834;BME280;63361;52.384;20.930;2023-01-29T01:56:00;101552.09;;;-1.90;86.30
74834;BME280;63361;52.384;20.930;2023-01-29T01:58:50;101552.38;;;-1.77;85.71
74834;BME280;63361;52.384;20.930;2023-01-29T02:01:18;101554.09;;;-1.84;85.65
74834;BME280;63361;52.384;20.930;2023-01-29T02:03:55;101568.59;;;-1.80;86.22
74834;BME280;63361;52.384;20.930;2023-01-29T02:06:40;101574.22;;;-1.83;85.78
74834;BME280;63361;52.384;20.930;2023-01-29T02:09:45;101545.84;;;-1.97;86.67
74834;BME280;63361;52.384;20.930;2023-01-29T02:12:15;101560.66;;;-1.71;85.82
74834;BME280;63361;52.384;20.930;2023-01-29T02:14:41;101552.09;;;-1.90;85.75
74834;BME280;63361;52.384;20.930;2023-01-29T02:17:10;101560.16;;;-1.83;86.50
74834;BME280;63361;52.384;20.930;2023-01-29T02:35:40;101528.72;;;-1.70;85.60
74834;BME280;63361;52.384;20.930;2023-01-29T02:40:54;101523.50;;;-1.94;86.34
74834;BME280;63361;52.384;20.930;2023-01-29T02:46:11;101527.75;;;-1.77;85.44
74834;BME280;63361;52.384;20.930;2023-01-29T02:48:54;101498.53;;;-1.92;85.95
74834;BME280;63361;52.384;20.930;2023-01-29T02:51:33;101523.13;;;-1.83;86.00
74834;BME280;63361;52.384;20.930;2023-01-29T02:56:38;101514.56;;;-1.93;87.12
74834;BME280;63361;52.384;20.930;2023-01-29T02:59:16;101511.28;;;-1.95;87.07
74834;BME280;63361;52.384;20.930;2023-01-29T03:02:07;101515.00;;;-1.73;86.83
74834;BME280;63361;52.384;20.930;2023-01-29T03:04:38;101510.56;;;-1.81;87.36
74834;BME280;63361;52.384;20.930;2023-01-29T03:07:09;101519.31;;;-1.81;87.33
74834;BME280;63361;52.384;20.930;2023-01-29T03:09:57;101523.13;;;-1.83;87.57
74834;BME280;63361;52.384;20.930;2023-01-29T03:12:25;101490.09;;;-1.87;86.47
74834;BME280;63361;52.384;20.930;2023-01-29T03:15:01;101500.84;;;-1.89;87.33
74834;BME280;63361;52.384;20.930;2023-01-29T03:20:12;101507.00;;;-1.65;86.66
74834;BME280;63361;52.384;20.930;2023-01-29T03:22:43;101503.75;;;-1.75;87.23
74834;BME280;63361;52.384;20.930;2023-01-29T03:25:12;101505.75;;;-1.78;87.44
74834;BME280;63361;52.384;20.930;2023-01-29T03:27:59;101505.53;;;-1.68;87.04
74834;BME280;63361;52.384;20.930;2023-01-29T03:30:52;101508.72;;;-1.72;86.77
74834;BME280;63361;52.384;20.930;2023-01-29T03:33:47;101484.81;;;-1.87;87.79
74834;BME280;63361;52.384;20.930;2023-01-29T03:36:22;101500.50;;;-1.86;88.70
74834;BME280;63361;52.384;20.930;2023-01-29T03:38:51;101485.13;;;-1.90;88.91
74834;BME280;63361;52.384;20.930;2023-01-29T03:44:05;101504.53;;;-1.67;87.59
74834;BME280;63361;52.384;20.930;2023-01-29T03:46:45;101491.88;;;-1.80;87.98
74834;BME280;63361;52.384;20.930;2023-01-29T03:49:35;101504.09;;;-1.70;88.65
74834;BME280;63361;52.384;20.930;2023-01-29T03:52:14;101454.06;;;-1.96;88.36
74834;BME280;63361;52.384;20.930;2023-01-29T03:55:13;101502.88;;;-1.68;88.61
74834;BME280;63361;52.384;20.930;2023-01-29T03:57:56;101492.13;;;-1.66;88.92
74834;BME280;63361;52.384;20.930;2023-01-29T04:00:31;101456.03;;;-1.90;88.49
74834;BME280;63361;52.384;20.930;2023-01-29T04:03:04;101484.34;;;-1.68;87.99
74834;BME280;63361;52.384;20.930;2023-01-29T04:05:39;101467.72;;;-1.77;88.74
74834;BME280;63361;52.384;20.930;2023-01-29T04:08:11;101467.19;;;-1.72;88.26
74834;BME280;63361;52.384;20.930;2023-01-29T04:10:40;101469.63;;;-1.62;87.91
74834;BME280;63361;52.384;20.930;2023-01-29T04:13:09;101473.31;;;-1.71;88.81
74834;BME280;63361;52.384;20.930;2023-01-29T04:15:43;101468.06;;;-1.80;88.98
74834;BME280;63361;52.384;20.930;2023-01-29T04:18:10;101444.84;;;-2.00;89.01
74834;BME280;63361;52.384;20.930;2023-01-29T04:20:35;101447.28;;;-1.91;90.06
74834;BME280;63361;52.384;20.930;2023-01-29T04:23:01;101466.06;;;-1.78;89.23
74834;BME280;63361;52.384;20.930;2023-01-29T04:25:30;101476.41;;;-1.68;89.30
74834;BME280;63361;52.384;20.930;2023-01-29T04:28:18;101466.88;;;-1.69;88.31
74834;BME280;63361;52.384;20.930;2023-01-29T04:31:07;101470.94;;;-1.58;88.29
74834;BME280;63361;52.384;20.930;2023-01-29T04:33:52;101470.63;;;-1.63;87.96
74834;BME280;63361;52.384;20.930;2023-01-29T04:41:36;101459.19;;;-1.64;87.71
74834;BME280;63361;52.384;20.930;2023-01-29T04:49:58;101433.63;;;-1.71;88.50
74834;BME280;63361;52.384;20.930;2023-01-29T04:52:32;101447.09;;;-1.58;88.78
74834;BME280;63361;52.384;20.930;2023-01-29T04:58:06;101440.00;;;-1.58;88.28
74834;BME280;63361;52.384;20.930;2023-01-29T05:00:40;101437.38;;;-1.66;88.50
74834;BME280;63361;52.384;20.930;2023-01-29T05:03:06;101439.50;;;-1.61;87.52
74834;BME280;63361;52.384;20.930;2023-01-29T05:05:34;101429.81;;;-1.69;88.35
74834;BME280;63361;52.384;20.930;2023-01-29T05:08:01;101452.41;;;-1.58;88.14
74834;BME280;63361;52.384;20.930;2023-01-29T05:10:27;101431.50;;;-1.76;89.09
74834;BME280;63361;52.384;20.930;2023-01-29T05:12:58;101418.31;;;-1.84;88.42
74834;BME280;63361;52.384;20.930;2023-01-29T05:16:04;101463.00;;;-1.58;88.20
74834;BME280;63361;52.384;20.930;2023-01-29T05:18:31;101430.00;;;-1.79;89.14
74834;BME280;63361;52.384;20.930;2023-01-29T05:20:58;101428.69;;;-1.83;89.04
74834;BME280;63361;52.384;20.930;2023-01-29T05:23:26;101444.31;;;-1.65;88.99
74834;BME280;63361;52.384;20.930;2023-01-29T05:25:51;101417.16;;;-1.59;88.32
74834;BME280;63361;52.384;20.930;2023-01-29T05:28:17;101423.13;;;-1.57;88.41
74834;BME280;63361;52.384;20.930;2023-01-29T05:30:45;101393.94;;;-1.71;88.82
74834;BME280;63361;52.384;20.930;2023-01-29T05:33:23;101416.44;;;-1.53;87.75
74834;BME280;63361;52.384;20.930;2023-01-29T05:35:49;101400.81;;;-1.62;87.99
74834;BME280;63361;52.384;20.930;2023-01-29T05:38:15;101415.16;;;-1.57;88.84
74834;BME280;63361;52.384;20.930;2023-01-29T05:40:41;101398.97;;;-1.62;88.33
74834;BME280;63361;52.384;20.930;2023-01-29T05:43:18;101413.78;;;-1.53;88.30
74834;BME280;63361;52.384;20.930;2023-01-29T05:45:57;101402.94;;;-1.58;87.81
74834;BME280;63361;52.384;20.930;2023-01-29T05:48:23;101397.97;;;-1.61;87.84
74834;BME280;63361;52.384;20.930;2023-01-29T05:50:49;101407.63;;;-1.45;87.10
74834;BME280;63361;52.384;20.930;2023-01-29T05:53:15;101403.41;;;-1.54;87.42
74834;BME280;63361;52.384;20.930;2023-01-29T05:55:44;101406.69;;;-1.52;87.23
74834;BME280;63361;52.384;20.930;2023-01-29T05:58:10;101404.03;;;-1.52;87.50
74834;BME280;63361;52.384;20.930;2023-01-29T06:00:35;101403.34;;;-1.46;87.24
74834;BME280;63361;52.384;20.930;2023-01-29T06:03:00;101421.69;;;-1.45;87.38
74834;BME280;63361;52.384;20.930;2023-01-29T06:05:26;101399.28;;;-1.57;87.17
74834;BME280;63361;52.384;20.930;2023-01-29T06:07:51;101407.72;;;-1.53;87.95
74834;BME280;63361;52.384;20.930;2023-01-29T06:10:17;101393.00;;;-1.56;87.08
74834;BME280;63361;52.384;20.930;2023-01-29T06:12:43;101387.22;;;-1.59;87.30
74834;BME280;63361;52.384;20.930;2023-01-29T06:15:09;101387.88;;;-1.57;87.37
74834;BME280;63361;52.384;20.930;2023-01-29T06:17:34;101396.75;;;-1.50;88.07
74834;BME280;63361;52.384;20.930;2023-01-29T06:20:00;101414.59;;;-1.44;87.64
74834;BME280;63361;52.384;20.930;2023-01-29T06:22:25;101400.34;;;-1.43;87.82
74834;BME280;63361;52.384;20.930;2023-01-29T06:24:51;101411.13;;;-1.45;87.37
74834;BME280;63361;52.384;20.930;2023-01-29T06:27:16;101398.09;;;-1.31;86.92
74834;BME280;63361;52.384;20.930;2023-01-29T06:29:41;101399.00;;;-1.39;86.35
74834;BME280;63361;52.384;20.930;2023-01-29T06:32:07;101400.28;;;-1.35;86.49
74834;BME280;63361;52.384;20.930;2023-01-29T06:34:32;101411.09;;;-1.22;86.77
74834;BME280;63361;52.384;20.930;2023-01-29T06:36:57;101387.63;;;-1.25;85.99
74834;BME280;63361;52.384;20.930;2023-01-29T06:39:23;101397.94;;;-1.30;86.12
74834;BME280;63361;52.384;20.930;2023-01-29T06:41:48;101410.38;;;-1.16;85.99
74834;BME280;63361;52.384;20.930;2023-01-29T06:44:14;101402.78;;;-1.19;85.84
74834;BME280;63361;52.384;20.930;2023-01-29T06:46:39;101399.63;;;-1.14;85.95
74834;BME280;63361;52.384;20.930;2023-01-29T06:49:04;101403.91;;;-1.13;85.61
74834;BME280;63361;52.384;20.930;2023-01-29T06:51:30;101393.84;;;-1.18;85.87
74834;BME280;63361;52.384;20.930;2023-01-29T06:53:55;101382.38;;;-1.33;86.12
74834;BME280;63361;52.384;20.930;2023-01-29T06:56:21;101405.16;;;-1.24;85.79
74834;BME280;63361;52.384;20.930;2023-01-29T06:58:47;101411.78;;;-1.05;86.18
74834;BME280;63361;52.384;20.930;2023-01-29T07:01:12;101394.16;;;-1.13;85.53
74834;BME280;63361;52.384;20.930;2023-01-29T07:03:37;101382.25;;;-1.17;85.11
74834;BME280;63361;52.384;20.930;2023-01-29T07:06:03;101391.78;;;-1.08;85.49
74834;BME280;63361;52.384;20.930;2023-01-29T07:08:29;101357.03;;;-1.27;85.05
74834;BME280;63361;52.384;20.930;2023-01-29T07:11:01;101392.34;;;-0.97;85.17
74834;BME280;63361;52.384;20.930;2023-01-29T07:13:27;101376.06;;;-1.09;85.38
74834;BME280;63361;52.384;20.930;2023-01-29T07:15:52;101369.38;;;-1.05;84.71
74834;BME280;63361;52.384;20.930;2023-01-29T07:18:18;101349.47;;;-1.16;85.06
74834;BME280;63361;52.384;20.930;2023-01-29T07:20:43;101380.16;;;-1.07;84.87
74834;BME280;63361;52.384;20.930;2023-01-29T07:23:12;101408.16;;;-0.89;84.51
74834;BME280;63361;52.384;20.930;2023-01-29T07:25:38;101383.28;;;-1.03;84.89
74834;BME280;63361;52.384;20.930;2023-01-29T07:28:04;101414.41;;;-0.82;84.72
74834;BME280;63361;52.384;20.930;2023-01-29T07:30:30;101407.44;;;-0.83;83.89
74834;BME280;63361;52.384;20.930;2023-01-29T07:33:00;101411.56;;;-0.81;84.47
74834;BME280;63361;52.384;20.930;2023-01-29T07:35:25;101411.22;;;-0.78;84.32
74834;BME280;63361;52.384;20.930;2023-01-29T07:37:50;101415.41;;;-0.68;83.37
74834;BME280;63361;52.384;20.930;2023-01-29T07:40:16;101412.78;;;-0.68;84.42
74834;BME280;63361;52.384;20.930;2023-01-29T07:42:43;101412.88;;;-0.62;83.32
74834;BME280;63361;52.384;20.930;2023-01-29T07:45:10;101405.28;;;-0.65;83.66
74834;BME280;63361;52.384;20.930;2023-01-29T07:47:35;101378.78;;;-0.65;83.06
74834;BME280;63361;52.384;20.930;2023-01-29T07:50:01;101372.28;;;-0.48;83.14
74834;BME280;63361;52.384;20.930;2023-01-29T07:52:31;101385.59;;;-0.26;82.15
74834;BME280;63361;52.384;20.930;2023-01-29T07:54:57;101379.28;;;-0.25;81.64
74834;BME280;63361;52.384;20.930;2023-01-29T07:57:22;101380.41;;;-0.34;82.20
74834;BME280;63361;52.384;20.930;2023-01-29T07:59:48;101383.50;;;-0.16;82.04
74834;BME280;63361;52.384;20.930;2023-01-29T08:02:13;101390.81;;;-0.04;82.13
74834;BME280;63361;52.384;20.930;2023-01-29T08:04:39;101365.81;;;-0.09;81.07
74834;BME280;63361;52.384;20.930;2023-01-29T08:07:05;101382.06;;;0.03;80.78
74834;BME280;63361;52.384;20.930;2023-01-29T08:09:30;101382.19;;;-0.06;81.16
74834;BME280;63361;52.384;20.930;2023-01-29T08:11:56;101366.13;;;-0.19;81.50
74834;BME280;63361;52.384;20.930;2023-01-29T08:14:22;101381.91;;;0.04;81.60
74834;BME280;63361;52.384;20.930;2023-01-29T08:16:48;101371.59;;;-0.06;80.77
74834;BME280;63361;52.384;20.930;2023-01-29T08:19:14;101361.47;;;0.05;81.41
74834;BME280;63361;52.384;20.930;2023-01-29T08:21:39;101359.31;;;-0.07;81.11
74834;BME280;63361;52.384;20.930;2023-01-29T08:24:04;101357.50;;;-0.06;80.78
74834;BME280;63361;52.384;20.930;2023-01-29T08:26:30;101384.09;;;0.15;80.85
74834;BME280;63361;52.384;20.930;2023-01-29T08:28:55;101380.09;;;0.26;80.66
74834;BME280;63361;52.384;20.930;2023-01-29T08:31:20;101377.56;;;0.18;81.18
74834;BME280;63361;52.384;20.930;2023-01-29T08:33:46;101375.03;;;0.31;80.64
74834;BME280;63361;52.384;20.930;2023-01-29T08:36:11;101366.16;;;0.03;81.07
74834;BME280;63361;52.384;20.930;2023-01-29T08:38:37;101392.16;;;0.07;82.08
74834;BME280;63361;52.384;20.930;2023-01-29T08:41:02;101366.34;;;0.01;81.67
74834;BME280;63361;52.384;20.930;2023-01-29T08:43:28;101375.09;;;-0.20;82.66
74834;BME280;63361;52.384;20.930;2023-01-29T08:45:53;101366.50;;;-0.22;82.80
74834;BME280;63361;52.384;20.930;2023-01-29T08:48:19;101353.97;;;-0.28;82.86
74834;BME280;63361;52.384;20.930;2023-01-29T08:50:44;101361.47;;;-0.17;83.47
74834;BME280;63361;52.384;20.930;2023-01-29T08:53:09;101369.28;;;-0.09;84.10
74834;BME280;63361;52.384;20.930;2023-01-29T08:55:36;101376.41;;;0.06;83.22
74834;BME280;63361;52.384;20.930;2023-01-29T08:58:03;101362.16;;;-0.08;84.47
74834;BME280;63361;52.384;20.930;2023-01-29T09:00:29;101360.56;;;0.12;85.15
74834;BME280;63361;52.384;20.930;2023-01-29T09:02:55;101376.00;;;0.45;84.87
74834;BME280;63361;52.384;20.930;2023-01-29T09:05:20;101358.03;;;0.47;83.81
74834;BME280;63361;52.384;20.930;2023-01-29T09:07:46;101364.56;;;0.44;84.40
74834;BME280;63361;52.384;20.930;2023-01-29T09:10:11;101350.69;;;0.06;87.26
74834;BME280;63361;52.384;20.930;2023-01-29T09:12:36;101349.06;;;-0.10;89.28
74834;BME280;63361;52.384;20.930;2023-01-29T09:15:02;101353.06;;;0.01;90.23
74834;BME280;63361;52.384;20.930;2023-01-29T09:17:28;101347.16;;;0.20;90.14
74834;BME280;63361;52.384;20.930;2023-01-29T09:19:53;101358.97;;;0.18;90.07
74834;BME280;63361;52.384;20.930;2023-01-29T09:22:19;101356.00;;;0.06;90.20
74834;BME280;63361;52.384;20.930;2023-01-29T09:24:45;101338.97;;;-0.21;90.76
74834;BME280;63361;52.384;20.930;2023-01-29T09:27:10;101335.22;;;-0.26;92.13
74834;BME280;63361;52.384;20.930;2023-01-29T09:29:35;101338.78;;;-0.19;91.42
74834;BME280;63361;52.384;20.930;2023-01-29T09:32:02;101330.06;;;-0.13;91.11
74834;BME280;63361;52.384;20.930;2023-01-29T09:34:28;101327.47;;;-0.07;90.84
74834;BME280;63361;52.384;20.930;2023-01-29T09:36:53;101333.53;;;-0.13;91.77
74834;BME280;63361;52.384;20.930;2023-01-29T09:39:19;101331.38;;;0.12;91.69
74834;BME280;63361;52.384;20.930;2023-01-29T09:42:07;101334.97;;;0.26;91.59
74834;BME280;63361;52.384;20.930;2023-01-29T09:47:15;101313.22;;;0.16;91.25
74834;BME280;63361;52.384;20.930;2023-01-29T09:49:45;101331.78;;;0.16;92.65
74834;BME280;63361;52.384;20.930;2023-01-29T09:52:33;101323.81;;;0.16;91.99
74834;BME280;63361;52.384;20.930;2023-01-29T09:55:11;101335.25;;;0.16;92.13
74834;BME280;63361;52.384;20.930;2023-01-29T09:57:48;101322.75;;;0.10;92.00
74834;BME280;63361;52.384;20.930;2023-01-29T10:00:19;101323.56;;;0.32;92.47
74834;BME280;63361;52.384;20.930;2023-01-29T10:05:58;101315.00;;;0.09;91.49
74834;BME280;63361;52.384;20.930;2023-01-29T10:13:51;101307.34;;;0.20;90.81
74834;BME280;63361;52.384;20.930;2023-01-29T10:19:39;101301.84;;;0.22;89.31
74834;BME280;63361;52.384;20.930;2023-01-29T10:27:19;101264.03;;;0.20;89.11
74834;BME280;63361;52.384;20.930;2023-01-29T10:29:48;101289.31;;;0.16;89.98
74834;BME280;63361;52.384;20.930;2023-01-29T10:32:17;101307.88;;;0.30;90.19
74834;BME280;63361;52.384;20.930;2023-01-29T10:35:00;101298.28;;;0.57;89.18
74834;BME280;63361;52.384;20.930;2023-01-29T10:37:40;101289.06;;;0.32;89.56
74834;BME280;63361;52.384;20.930;2023-01-29T10:40:25;101287.94;;;0.20;89.40
74834;BME280;63361;52.384;20.930;2023-01-29T10:43:01;101294.44;;;0.17;89.85
74834;BME280;63361;52.384;20.930;2023-01-29T10:48:14;101285.53;;;0.25;90.40
74834;BME280;63361;52.384;20.930;2023-01-29T10:56:43;101280.34;;;-0.05;90.57
74834;BME280;63361;52.384;20.930;2023-01-29T10:59:02;101281.81;;;0.19;89.75
74834;BME280;63361;52.384;20.930;2023-01-29T11:01:29;101254.78;;;0.37;89.70
74834;BME280;63361;52.384;20.930;2023-01-29T11:03:57;101247.44;;;0.11;88.88
74834;BME280;63361;52.384;20.930;2023-01-29T11:06:32;101252.47;;;0.27;89.76
74834;BME280;63361;52.384;20.930;2023-01-29T11:09:05;101249.84;;;0.55;89.72
74834;BME280;63361;52.384;20.930;2023-01-29T11:11:43;101234.09;;;0.54;88.10
74834;BME280;63361;52.384;20.930;2023-01-29T11:16:50;101233.66;;;0.22;88.29
74834;BME280;63361;52.384;20.930;2023-01-29T11:19:16;101224.00;;;0.15;89.56
74834;BME280;63361;52.384;20.930;2023-01-29T11:21:55;101222.41;;;0.20;89.75
74834;BME280;63361;52.384;20.930;2023-01-29T11:24:22;101221.16;;;0.44;88.50
74834;BME280;63361;52.384;20.930;2023-01-29T11:26:48;101205.84;;;0.46;88.55
74834;BME280;63361;52.384;20.930;2023-01-29T11:29:37;101205.84;;;0.46;88.52
74834;BME280;63361;52.384;20.930;2023-01-29T11:32:25;101204.59;;;0.42;88.53
74834;BME280;63361;52.384;20.930;2023-01-29T11:37:34;101190.06;;;0.10;88.59
74834;BME280;63361;52.384;20.930;2023-01-29T11:40:00;101188.56;;;0.29;88.28
74834;BME280;63361;52.384;20.930;2023-01-29T11:42:30;101179.97;;;0.27;88.26
74834;BME280;63361;52.384;20.930;2023-01-29T11:44:56;101198.13;;;0.51;87.72
74834;BME280;63361;52.384;20.930;2023-01-29T11:47:27;101181.56;;;0.49;87.40
74834;BME280;63361;52.384;20.930;2023-01-29T11:49:55;101184.44;;;0.54;87.45
74834;BME280;63361;52.384;20.930;2023-01-29T11:52:24;101169.56;;;0.25;88.50
74834;BME280;63361;52.384;20.930;2023-01-29T11:54:57;101167.28;;;0.22;89.26
74834;BME280;63361;52.384;20.930;2023-01-29T11:57:30;101167.84;;;0.18;88.81
74834;BME280;63361;52.384;20.930;2023-01-29T12:00:02;101157.38;;;0.10;89.68
74834;BME280;63361;52.384;20.930;2023-01-29T12:02:35;101148.41;;;0.11;89.68
74834;BME280;63361;52.384;20.930;2023-01-29T12:05:14;101149.06;;;-0.09;90.03
74834;BME280;63361;52.384;20.930;2023-01-29T12:07:42;101143.63;;;-0.01;90.89
74834;BME280;63361;52.384;20.930;2023-01-29T12:10:29;101143.41;;;0.01;90.34
74834;BME280;63361;52.384;20.930;2023-01-29T12:15:35;101123.81;;;-0.05;90.61
74834;BME280;63361;52.384;20.930;2023-01-29T12:18:29;101123.72;;;0.10;90.35
74834;BME280;63361;52.384;20.930;2023-01-29T12:21:17;101126.25;;;-0.03;90.56
74834;BME280;63361;52.384;20.930;2023-01-29T12:23:54;101130.06;;;0.16;90.19
74834;BME280;63361;52.384;20.930;2023-01-29T12:26:38;101126.09;;;0.05;90.81
74834;BME280;63361;52.384;20.930;2023-01-29T12:32:34;101124.91;;;0.08;91.07
74834;BME280;63361;52.384;20.930;2023-01-29T12:35:18;101109.56;;;0.03;90.97
74834;BME280;63361;52.384;20.930;2023-01-29T12:38:09;101116.22;;;0.20;90.70
74834;BME280;63361;52.384;20.930;2023-01-29T12:40:40;101089.22;;;0.17;90.69
74834;BME280;63361;52.384;20.930;2023-01-29T12:43:16;101102.50;;;0.17;91.49
74834;BME280;63361;52.384;20.930;2023-01-29T12:45:44;101110.63;;;0.09;92.02
74834;BME280;63361;52.384;20.930;2023-01-29T12:48:18;101107.53;;;0.05;93.18
74834;BME280;63361;52.384;20.930;2023-01-29T12:50:45;101082.50;;;-0.14;93.98
74834;BME280;63361;52.384;20.930;2023-01-29T12:53:31;101095.72;;;-0.20;93.78
74834;BME280;63361;52.384;20.930;2023-01-29T12:56:04;101100.59;;;-0.24;95.26
74834;BME280;63361;52.384;20.930;2023-01-29T12:58:44;101097.09;;;-0.24;94.34
74834;BME280;63361;52.384;20.930;2023-01-29T13:04:02;101076.38;;;-0.63;96.25
74834;BME280;63361;52.384;20.930;2023-01-29T13:06:35;101104.78;;;-0.36;96.07
74834;BME280;63361;52.384;20.930;2023-01-29T13:09:10;101108.13;;;-0.49;96.03
74834;BME280;63361;52.384;20.930;2023-01-29T13:11:40;101113.16;;;-0.32;95.79
74834;BME280;63361;52.384;20.930;2023-01-29T13:14:27;101108.16;;;-0.42;97.24
74834;BME280;63361;52.384;20.930;2023-01-29T13:17:08;101060.09;;;-0.82;97.32
74834;BME280;63361;52.384;20.930;2023-01-29T13:19:42;101068.16;;;-0.68;98.39
74834;BME280;63361;52.384;20.930;2023-01-29T13:22:20;101093.22;;;-0.50;97.04
74834;BME280;63361;52.384;20.930;2023-01-29T13:24:47;101036.25;;;-0.82;97.09
74834;BME280;63361;52.384;20.930;2023-01-29T13:27:27;101102.41;;;-0.24;96.93
74834;BME280;63361;52.384;20.930;2023-01-29T13:29:54;101111.25;;;-0.17;95.90
74834;BME280;63361;52.384;20.930;2023-01-29T13:32:28;101082.53;;;-0.35;95.62
74834;BME280;63361;52.384;20.930;2023-01-29T13:34:57;101087.06;;;-0.29;96.31
74834;BME280;63361;52.384;20.930;2023-01-29T13:39:58;100992.66;;;-0.51;95.34
74834;BME280;63361;52.384;20.930;2023-01-29T13:45:06;101065.97;;;-0.16;95.61
74834;BME280;63361;52.384;20.930;2023-01-29T13:47:34;101037.38;;;-0.48;96.52
74834;BME280;63361;52.384;20.930;2023-01-29T13:50:35;101076.25;;;-0.27;97.37
74834;BME280;63361;52.384;20.930;2023-01-29T13:53:03;101049.91;;;-0.36;97.27
74834;BME280;63361;52.384;20.930;2023-01-29T13:55:38;101044.44;;;-0.55;98.69
74834;BME280;63361;52.384;20.930;2023-01-29T14:00:57;101076.34;;;-0.42;98.31
74834;BME280;63361;52.384;20.930;2023-01-29T14:05:58;101096.44;;;-0.33;98.22
74834;BME280;63361;52.384;20.930;2023-01-29T14:11:32;101099.94;;;-0.26;98.56
74834;BME280;63361;52.384;20.930;2023-01-29T14:13:58;101091.53;;;-0.29;98.44
74834;BME280;63361;52.384;20.930;2023-01-29T14:18:58;101100.25;;;-0.14;98.60
74834;BME280;63361;52.384;20.930;2023-01-29T14:21:30;101061.06;;;-0.40;98.33
74834;BME280;63361;52.384;20.930;2023-01-29T14:24:22;101085.63;;;-0.31;98.68
74834;BME280;63361;52.384;20.930;2023-01-29T14:26:55;101086.31;;;-0.44;99.05
74834;BME280;63361;52.384;20.930;2023-01-29T14:29:28;101075.88;;;-0.52;99.75
74834;BME280;63361;52.384;20.930;2023-01-29T14:32:06;101073.97;;;-0.58;100.00
74834;BME280;63361;52.384;20.930;2023-01-29T14:34:34;101079.00;;;-0.42;100.00
74834;BME280;63361;52.384;20.930;2023-01-29T14:37:24;101074.91;;;-0.45;100.00
74834;BME280;63361;52.384;20.930;2023-01-29T14:39:57;101058.47;;;-0.61;100.00
74834;BME280;63361;52.384;20.930;2023-01-29T14:52:23;101048.88;;;-0.62;100.00
74834;BME280;63361;52.384;20.930;2023-01-29T14:54:51;101071.94;;;-0.56;100.00
74834;BME280;63361;52.384;20.930;2023-01-29T14:57:18;101076.50;;;-0.50;100.00